Time;durP1;ratioP1;P1;durP2;ratioP2;P2;SDS_P1;SDS_P2;PMS_P1;PMS_P2;Temp;Humidity;BMP_temperature;BMP_pressure;BME280_temperature;BME280_humidity;BME280_pressure;Samples;Min_cycle;Max_cycle;Signal;HPM_P1;HPM_P2
2022/06/02 00:01:34;;;;;;;7.47;3.80;;;;;;;10.01;84.57;100447.94;5053665;28;20021;-76
2022/06/02 00:04:18;;;;;;;8.88;4.10;;;;;;;10.00;84.10;100448.16;5053655;28;20060;-77
2022/06/02 00:07:06;;;;;;;9.18;4.18;;;;;;;9.89;84.78;100454.91;5053334;28;20036;-76
2022/06/02 00:09:33;;;;;;;;;;;;;;;9.88;84.69;100452.41;5053727;28;20031;-76
2022/06/02 00:12:13;;;;;;;7.70;3.78;;;;;;;9.87;84.79;100451.59;5053226;28;19922;-77
2022/06/02 00:14:50;;;;;;;9.15;4.38;;;;;;;9.85;85.34;100444.78;5053204;28;20036;-77
2022/06/02 00:17:32;;;;;;;7.45;3.90;;;;;;;9.84;85.31;100448.50;5053426;28;20028;-77
2022/06/02 00:20:08;;;;;;;9.45;4.45;;;;;;;9.75;85.52;100447.81;5053184;28;20029;-76
2022/06/02 00:22:55;;;;;;;8.00;3.95;;;;;;;9.77;85.70;100445.75;5053129;28;20029;-76
2022/06/02 00:25:32;;;;;;;11.90;4.43;;;;;;;9.86;85.38;100443.72;5053125;28;20033;-76
2022/06/02 00:28:05;;;;;;;9.65;4.90;;;;;;;9.93;85.46;100445.41;5053166;28;20487;-76
2022/06/02 00:30:49;;;;;;;9.98;3.88;;;;;;;9.96;85.13;100454.97;5053064;28;20052;-76
2022/06/02 00:33:37;;;;;;;11.88;5.10;;;;;;;9.95;84.46;100459.50;5052915;28;20040;-76
2022/06/02 00:36:10;;;;;;;;;;;;;;;9.80;85.31;100461.50;5053688;28;20463;-76
2022/06/02 00:38:38;;;;;;;8.93;4.68;;;;;;;9.82;85.67;100462.13;5053275;28;19921;-76
2022/06/02 00:41:25;;;;;;;11.88;4.93;;;;;;;9.72;85.95;100453.59;5053301;28;20036;-76
2022/06/02 00:43:50;;;;;;;11.63;5.07;;;;;;;9.64;86.07;100445.69;5053182;28;20087;-76
2022/06/02 00:46:51;;;;;;;10.67;4.63;;;;;;;9.65;86.34;100450.03;5053263;28;20061;-76
2022/06/02 00:49:25;;;;;;;8.68;4.28;;;;;;;9.64;86.39;100451.91;5052970;28;20032;-76
2022/06/02 00:52:20;;;;;;;10.57;4.40;;;;;;;9.66;86.12;100454.41;5052944;28;20033;-76
2022/06/02 00:57:39;;;;;;;10.88;4.60;;;;;;;9.77;85.97;100464.59;5052909;28;20043;-76
2022/06/02 01:00:20;;;;;;;14.15;5.05;;;;;;;9.72;86.21;100467.88;5052992;28;20033;-76
2022/06/02 01:03:15;;;;;;;9.30;4.82;;;;;;;9.71;86.27;100474.28;5053045;28;20032;-76
2022/06/02 01:06:10;;;;;;;9.90;4.95;;;;;;;9.64;86.59;100469.91;5034847;28;20037;-76
2022/06/02 01:08:56;;;;;;;13.65;5.20;;;;;;;9.58;86.06;100473.38;5053066;28;20025;-76
2022/06/02 01:11:32;;;;;;;10.50;5.55;;;;;;;9.61;86.83;100473.81;5052719;28;20494;-76
2022/06/02 01:14:34;;;;;;;11.23;5.45;;;;;;;9.55;86.20;100474.59;5052742;28;20126;-76
2022/06/02 01:17:15;;;;;;;10.52;5.30;;;;;;;9.52;86.69;100479.53;5052624;28;20063;-76
2022/06/02 01:19:56;;;;;;;11.23;5.18;;;;;;;9.49;86.96;100479.94;5052697;28;20029;-76
2022/06/02 01:22:47;;;;;;;12.00;5.10;;;;;;;9.42;87.14;100481.75;5034940;28;20029;-76
2022/06/02 01:25:41;;;;;;;13.05;5.80;;;;;;;9.39;87.24;100482.97;5011913;28;20081;-76
2022/06/02 01:28:23;;;;;;;10.98;5.40;;;;;;;9.36;87.57;100499.47;5013172;28;20442;-76
2022/06/02 01:30:55;;;;;;;12.68;5.28;;;;;;;9.29;87.84;100491.38;5013261;28;20411;-76
2022/06/02 01:33:29;;;;;;;13.13;6.35;;;;;;;9.26;87.92;100486.38;5013166;28;20033;-76
2022/06/02 01:36:12;;;;;;;10.68;5.57;;;;;;;9.23;87.79;100488.63;5012992;28;20447;-76
2022/06/02 01:38:59;;;;;;;10.38;4.97;;;;;;;9.22;88.66;100492.34;5012873;28;20033;-76
2022/06/02 01:41:41;;;;;;;10.77;5.57;;;;;;;9.29;88.43;100486.00;5012871;28;20057;-76
2022/06/02 01:44:30;;;;;;;10.02;4.50;;;;;;;9.26;88.08;100489.06;5013753;28;20026;-76
2022/06/02 01:47:10;;;;;;;10.52;5.38;;;;;;;9.26;87.82;100486.38;5016574;28;20022;-76
2022/06/02 01:49:51;;;;;;;12.23;5.68;;;;;;;9.25;88.21;100490.09;5016523;28;20058;-76
2022/06/02 01:52:23;;;;;;;12.68;5.70;;;;;;;9.18;88.40;100491.88;5016579;28;20485;-76
2022/06/02 01:54:58;;;;;;;11.30;5.30;;;;;;;9.12;89.07;100498.06;5016394;28;20384;-76
2022/06/02 01:57:38;;;;;;;10.48;5.22;;;;;;;9.10;88.82;100494.72;5016182;28;20065;-76
2022/06/02 02:00:13;;;;;;;11.20;5.35;;;;;;;9.04;89.18;100503.56;5016725;28;20034;-76
2022/06/02 02:02:54;;;;;;;10.18;5.63;;;;;;;9.08;89.96;100502.16;5016267;28;20045;-76
2022/06/02 02:05:34;;;;;;;12.88;6.05;;;;;;;9.07;89.24;100499.66;5015945;28;20030;-76
2022/06/02 02:08:26;;;;;;;12.80;5.68;;;;;;;9.07;89.47;100497.81;5016343;28;20534;-76
2022/06/02 02:11:25;;;;;;;11.85;5.70;;;;;;;9.08;89.74;100498.63;5014685;28;20148;-76
2022/06/02 02:14:14;;;;;;;11.73;6.13;;;;;;;9.08;89.69;100495.94;5015848;28;20152;-76
2022/06/02 02:17:05;;;;;;;12.25;5.65;;;;;;;9.07;89.65;100489.75;5015801;28;20042;-76
2022/06/02 02:19:45;;;;;;;11.52;5.97;;;;;;;9.04;89.05;100488.25;5016118;28;20037;-75
2022/06/02 02:22:36;;;;;;;13.00;5.88;;;;;;;9.04;89.41;100495.50;5015793;28;20651;-76
2022/06/02 02:25:01;;;;;;;13.90;6.35;;;;;;;9.00;89.67;100497.72;5035427;28;20045;-76
2022/06/02 02:30:49;;;;;;;11.77;5.32;;;;;;;9.14;89.45;100492.47;5035544;28;20477;-76
2022/06/02 02:33:36;;;;;;;12.77;5.97;;;;;;;9.13;89.36;100505.09;5028048;28;20045;-76
2022/06/02 02:36:30;;;;;;;10.88;5.25;;;;;;;9.10;89.28;100496.59;5035204;28;20492;-76
2022/06/02 02:39:07;;;;;;;13.25;6.07;;;;;;;-144.94;66.00;77409.28;4998469;28;20471;-76
2022/06/02 02:41:53;;;;;;;12.43;5.55;;;;;;;-144.94;66.02;77405.16;5035393;28;20044;-76
2022/06/02 02:44:34;;;;;;;14.27;7.10;;;;;;;-144.94;65.89;77419.59;5035244;28;20032;-77
2022/06/02 02:47:10;;;;;;;12.95;6.78;;;;;;;-144.94;66.33;77434.00;5034982;28;20383;-77
2022/06/02 02:49:54;;;;;;;14.40;6.18;;;;;;;-144.94;65.93;77434.00;5035548;28;20030;-77
2022/06/02 02:52:38;;;;;;;14.80;6.38;;;;;;;-144.94;66.47;77448.41;5035107;28;20079;-76
2022/06/02 02:55:15;;;;;;;10.90;5.80;;;;;;;-144.94;66.80;77452.53;5035015;28;20041;-76
2022/06/02 02:57:50;;;;;;;12.43;6.22;;;;;;;-144.94;67.00;77458.72;5035297;28;20083;-75
2022/06/02 03:00:21;;;;;;;13.00;6.45;;;;;;;-144.94;67.03;77466.94;5035069;28;20064;-76
2022/06/02 03:03:13;;;;;;;13.23;5.97;;;;;;;-144.94;67.12;77464.88;5034951;28;20140;-76
2022/06/02 03:06:08;;;;;;;16.25;6.28;;;;;;;-144.94;67.22;77473.13;5034857;28;20033;-76
2022/06/02 03:09:09;;;;;;;14.43;6.10;;;;;;;-144.94;66.74;77475.19;5027398;28;20045;-76
2022/06/02 03:11:53;;;;;;;14.52;6.03;;;;;;;-144.94;66.79;77475.19;5034554;28;20034;-76
2022/06/02 03:14:52;;;;;;;12.68;6.63;;;;;;;-144.94;66.88;77477.25;5034746;28;20044;-76
2022/06/02 03:17:48;;;;;;;10.77;5.53;;;;;;;-144.94;66.92;77477.25;5034478;28;20029;-76
2022/06/02 03:20:30;;;;;;;13.20;6.28;;;;;;;-144.94;67.23;77481.38;5034672;28;20037;-76
2022/06/02 03:23:03;;;;;;;11.43;5.90;;;;;;;-144.94;67.15;77487.53;5038603;28;20045;-75
2022/06/02 03:25:40;;;;;;;13.68;6.43;;;;;;;-144.94;67.00;77487.53;5036494;28;20466;-76
2022/06/02 03:28:24;;;;;;;14.55;7.15;;;;;;;-144.94;67.45;77493.72;5054236;28;20029;-76
2022/06/02 03:30:57;;;;;;;15.07;7.00;;;;;;;-144.94;67.23;77475.19;5054402;28;20029;-76
2022/06/02 03:33:31;;;;;;;13.35;6.50;;;;;;;-144.94;67.24;77473.13;5054714;28;20025;-76
2022/06/02 03:36:18;;;;;;;14.93;7.65;;;;;;;-144.94;67.06;77489.59;5054301;28;20064;-76
2022/06/02 03:39:03;;;;;;;14.07;7.78;;;;;;;-144.94;67.10;77491.66;5054062;28;20464;-76
2022/06/02 03:42:01;;;;;;;12.93;5.82;;;;;;;-144.94;66.41;77489.59;5054290;28;20037;-76
2022/06/02 03:44:29;;;;;;;;;;;;;;;-144.94;66.00;77510.19;5054262;28;20538;-76
2022/06/02 03:47:19;;;;;;;11.52;5.25;;;;;;;-144.94;66.94;77539.03;5054030;28;19999;-76
2022/06/02 03:50:13;;;;;;;13.32;5.55;;;;;;;-144.94;66.92;77561.69;5053964;28;20119;-76
2022/06/02 03:53:07;;;;;;;12.48;5.65;;;;;;;-144.94;67.57;77561.69;5054308;28;20032;-76
2022/06/02 03:55:57;;;;;;;12.55;6.03;;;;;;;-144.94;67.45;77563.72;5053733;28;20471;-76
2022/06/02 03:58:34;;;;;;;13.25;6.40;;;;;;;-144.94;67.68;77563.72;5053584;28;20032;-76
2022/06/02 04:01:03;;;;;;;12.60;6.40;;;;;;;-144.94;67.54;77561.69;5053598;28;20067;-76
2022/06/02 04:04:11;;;;;;;12.27;6.43;;;;;;;-144.94;67.38;77561.69;5054270;28;20028;-76
2022/06/02 04:07:11;;;;;;;13.35;6.20;;;;;;;-144.94;67.51;77553.44;5045048;28;20044;-76
2022/06/02 04:09:49;;;;;;;13.57;6.20;;;;;;;-144.94;67.47;77549.31;5053385;28;20074;-76
2022/06/02 04:15:56;;;;;;;12.77;6.70;;;;;;;-144.94;67.67;77532.84;5053365;28;20035;-76
2022/06/02 04:18:40;;;;;;;13.40;6.60;;;;;;;-144.94;67.57;77526.66;5053242;28;20138;-76
2022/06/02 04:21:32;;;;;;;15.52;6.88;;;;;;;-144.94;67.84;77518.44;5053730;28;20466;-76
2022/06/02 04:24:04;;;;;;;18.67;8.35;;;;;;;-144.94;67.31;77512.25;5052658;28;20095;-75
2022/06/02 04:26:45;;;;;;;14.73;7.07;;;;;;;-144.94;67.46;77499.91;5053608;28;20029;-76
2022/06/02 04:29:30;;;;;;;17.20;7.80;;;;;;;-144.94;67.65;77489.59;5035411;28;20082;-75
2022/06/02 04:31:59;;;;;;;17.30;7.95;;;;;;;-144.94;67.18;77489.59;5053229;28;20060;-76
2022/06/02 04:34:46;;;;;;;16.38;7.28;;;;;;;-144.94;67.12;77487.53;5035247;28;20032;-76
2022/06/02 04:37:33;;;;;;;15.88;7.15;;;;;;;-144.94;67.07;77481.38;5035315;28;20036;-76
2022/06/02 04:40:46;;;;;;;14.95;7.88;;;;;;;-144.94;67.02;77466.94;5052780;28;20424;-76
2022/06/02 04:43:26;;;;;;;17.70;8.20;;;;;;;-144.94;66.80;77471.06;5025805;28;20033;-77
2022/06/02 04:46:10;;;;;;;16.85;8.13;;;;;;;-144.94;66.21;77456.66;5053436;28;20033;-77
2022/06/02 04:49:01;;;;;;;18.10;8.85;;;;;;;-144.94;66.46;77460.78;5052817;28;20025;-77
2022/06/02 04:51:50;;;;;;;15.15;7.35;;;;;;;-144.94;66.30;77456.66;5052571;28;20430;-76
2022/06/02 04:54:21;;;;;;;16.13;8.55;;;;;;;-144.94;66.30;77452.53;5004717;28;20049;-77
2022/06/02 04:57:21;;;;;;;15.70;7.40;;;;;;;-144.94;66.31;77450.47;5052706;28;20044;-77
2022/06/02 05:00:05;;;;;;;15.15;7.75;;;;;;;-144.94;66.48;77454.59;5053177;28;20029;-76
2022/06/02 05:02:57;;;;;;;17.02;7.93;;;;;;;-144.94;66.36;77452.53;5052673;28;20041;-77
2022/06/02 05:06:00;;;;;;;15.30;8.05;;;;;;;-144.94;66.05;77450.47;5052796;28;20021;-77
2022/06/02 05:08:54;;;;;;;17.13;8.13;;;;;;;-144.94;66.32;77442.25;5053481;28;20056;-77
2022/06/02 05:11:51;;;;;;;15.43;8.82;;;;;;;-144.94;65.93;77427.81;5034877;28;20033;-78
2022/06/02 05:14:28;;;;;;;13.65;7.20;;;;;;;-144.94;66.25;77429.88;5004378;28;20475;-77
2022/06/02 05:17:02;;;;;;;18.10;8.32;;;;;;;-144.94;66.29;77423.72;5052812;28;20033;-76
2022/06/02 05:19:42;;;;;;;15.13;7.68;;;;;;;-144.94;65.93;77423.72;5054375;28;20032;-77
2022/06/02 05:22:25;;;;;;;15.82;7.82;;;;;;;-144.94;65.56;77419.59;5056655;28;20029;-77
2022/06/02 05:25:19;;;;;;;15.77;7.70;;;;;;;-144.94;65.47;77417.53;5056221;28;20033;-76
2022/06/02 05:28:07;;;;;;;18.02;8.25;;;;;;;-144.94;65.96;77417.53;5056387;28;20025;-77
2022/06/02 05:30:48;;;;;;;16.42;7.70;;;;;;;-144.94;65.28;77415.47;5055848;28;20033;-78
2022/06/02 05:33:25;;;;;;;15.32;6.85;;;;;;;-144.94;65.44;77405.16;5056210;28;20159;-78
2022/06/02 05:36:06;;;;;;;15.25;7.30;;;;;;;-144.94;64.92;77399.00;5056226;28;20469;-77
2022/06/02 05:38:48;;;;;;;15.82;8.02;;;;;;;-144.94;65.22;77380.47;5055802;28;20029;-76
2022/06/02 05:41:50;;;;;;;16.42;7.45;;;;;;;-144.94;64.65;77366.03;5055761;28;20032;-81
2022/06/02 05:44:50;;;;;;;15.45;7.32;;;;;;;-144.94;64.02;77349.56;5056133;28;20344;-81
2022/06/02 05:47:41;;;;;;;16.42;7.47;;;;;;;-144.94;64.02;77353.69;5056203;28;20035;-81
2022/06/02 05:50:18;;;;;;;13.85;6.75;;;;;;;-144.94;64.04;77359.88;5055670;28;20099;-81
2022/06/02 05:53:18;;;;;;;12.80;6.22;;;;;;;-144.94;63.89;77364.00;5056011;28;20028;-81
2022/06/02 05:56:03;;;;;;;13.55;6.40;;;;;;;-144.94;64.28;77347.50;5055515;28;20037;-81
2022/06/02 05:58:31;;;;;;;13.73;6.53;;;;;;;-144.94;63.68;77343.41;5056212;28;20103;-81
2022/06/02 06:01:11;;;;;;;15.57;7.10;;;;;;;-144.94;64.00;77337.22;5056160;28;20123;-81
2022/06/02 06:04:00;;;;;;;17.25;7.10;;;;;;;-144.94;63.50;77337.22;5055708;28;20408;-80
2022/06/02 06:06:54;;;;;;;15.27;7.55;;;;;;;-144.94;63.47;77339.28;5055905;28;20044;-81
2022/06/02 06:09:26;;;;;;;13.25;7.03;;;;;;;-144.94;63.98;77310.44;5054218;28;20395;-81
2022/06/02 06:12:29;;;;;;;13.85;6.60;;;;;;;-144.94;63.02;77308.41;5055850;28;20357;-81
2022/06/02 06:15:28;;;;;;;16.38;6.35;;;;;;;-144.94;62.60;77277.50;5055303;28;20029;-82
2022/06/02 06:18:44;;;;;;;14.73;7.03;;;;;;;-144.94;62.67;77265.16;5056663;28;20025;-83
2022/06/02 06:21:34;;;;;;;14.27;6.97;;;;;;;-144.94;62.16;77269.28;4993927;28;20551;-82
2022/06/02 06:24:08;;;;;;;14.13;7.03;;;;;;;-144.94;61.83;77246.63;5055380;28;20052;-80
2022/06/02 06:26:50;;;;;;;13.85;7.10;;;;;;;-144.94;61.43;77223.97;5055449;28;20028;-79
2022/06/02 06:29:37;;;;;;;13.73;7.38;;;;;;;-144.94;61.03;77174.56;5055231;28;20055;-81
2022/06/02 06:32:02;;;;;;;;;;;;;;;-144.94;57.01;77003.66;5055861;28;20494;-81
2022/06/02 06:35:15;;;;;;;15.03;6.10;;;;;;;-144.94;57.22;77013.94;5055544;28;19940;-81
2022/06/02 06:37:47;;;;;;;13.95;6.93;;;;;;;-144.94;56.20;76993.34;5021476;28;20045;-81
2022/06/02 06:40:21;;;;;;;10.88;5.95;;;;;;;-144.94;55.71;76976.88;5055279;28;20032;-80
2022/06/02 06:43:11;;;;;;;12.18;5.88;;;;;;;-144.94;53.02;76878.06;5055791;28;20508;-79
2022/06/02 06:45:47;;;;;;;11.73;5.85;;;;;;;-144.94;51.61;76793.63;5055164;28;20025;-80
2022/06/02 06:48:23;;;;;;;10.50;5.78;;;;;;;-144.94;53.80;76917.19;5055422;28;20032;-80
2022/06/02 06:51:01;;;;;;;10.60;5.90;;;;;;;-144.94;54.36;76929.53;5055200;28;20029;-81
2022/06/02 06:53:55;;;;;;;10.98;5.47;;;;;;;-144.94;53.40;76867.75;5055237;28;20036;-79
2022/06/02 06:56:30;;;;;;;11.70;5.85;;;;;;;-144.94;53.96;76902.75;5036907;28;20025;-80
2022/06/02 06:59:32;;;;;;;10.38;5.85;;;;;;;-144.94;54.23;76929.53;5054951;28;20040;-79
2022/06/02 07:02:12;;;;;;;10.20;5.68;;;;;;;-144.94;54.48;76931.59;5055329;28;20084;-79
2022/06/02 07:05:04;;;;;;;10.57;5.65;;;;;;;-144.94;54.42;76913.06;5054743;28;20037;-80
2022/06/02 07:07:41;;;;;;;9.38;5.07;;;;;;;-144.94;51.99;76859.53;5055136;28;20091;-80
2022/06/02 07:10:17;;;;;;;12.13;6.25;;;;;;;-144.94;53.81;76960.41;5055481;28;20106;-79
2022/06/02 07:12:52;;;;;;;;;;;;;;;-144.94;53.74;76941.88;5037639;28;20498;-80
2022/06/02 07:15:27;;;;;;;10.15;5.63;;;;;;;-144.94;53.98;76970.72;5054839;28;20317;-80
2022/06/02 07:18:11;;;;;;;10.40;5.38;;;;;;;-144.94;55.28;77028.34;5054978;28;20024;-80
2022/06/02 07:21:00;;;;;;;9.45;4.60;;;;;;;-144.94;55.30;77034.53;5054547;28;20094;-80
2022/06/02 07:23:46;;;;;;;7.95;4.10;;;;;;;-144.94;55.32;76997.47;5036732;28;20502;-80
2022/06/02 07:26:15;;;;;;;7.13;3.70;;;;;;;-144.94;52.81;76995.41;5054680;28;20028;-80
2022/06/02 07:29:12;;;;;;;8.00;3.40;;;;;;;-144.94;52.91;77020.13;5054507;28;20029;-80
2022/06/02 07:31:54;;;;;;;7.75;4.03;;;;;;;-144.94;53.23;77083.94;5054811;28;20048;-80
2022/06/02 07:35:04;;;;;;;7.00;3.65;;;;;;;-144.94;53.67;77096.31;5054531;28;20039;-80
2022/06/02 07:37:57;;;;;;;8.10;4.40;;;;;;;-144.94;53.65;77088.06;5054508;28;20468;-80
2022/06/02 07:40:51;;;;;;;9.10;4.95;;;;;;;-144.94;54.24;77094.25;5054452;28;20032;-80
2022/06/02 07:43:25;;;;;;;10.05;5.32;;;;;;;-144.94;54.76;77108.66;5036907;28;20493;-81
2022/06/02 07:46:03;;;;;;;11.90;5.07;;;;;;;-144.94;55.31;77096.31;5036940;28;20025;-81
2022/06/02 07:48:53;;;;;;;8.07;4.57;;;;;;;-144.94;54.58;77100.44;5054558;28;20033;-82
2022/06/02 07:51:41;;;;;;;18.42;5.20;;;;;;;-144.94;54.79;77116.91;5055364;28;20109;-80
2022/06/02 07:54:10;;;;;;;12.57;5.90;;;;;;;-144.94;54.70;77131.31;5055111;28;20037;-81
2022/06/02 07:57:00;;;;;;;8.98;4.63;;;;;;;-144.94;54.59;77123.06;5054885;28;20043;-80
2022/06/02 07:59:29;;;;;;;7.05;3.70;;;;;;;-144.94;54.92;77108.66;5061200;28;20044;-80
2022/06/02 08:02:10;;;;;;;9.38;5.03;;;;;;;-144.94;54.32;77096.31;5056289;28;20028;-79
2022/06/02 08:05:00;;;;;;;9.25;4.43;;;;;;;-144.94;53.40;77086.00;5054147;28;20064;-79
2022/06/02 08:07:44;;;;;;;7.22;4.22;;;;;;;-144.94;52.63;77053.06;5054884;28;20040;-81
2022/06/02 08:10:31;;;;;;;8.32;4.13;;;;;;;-144.94;51.86;77013.94;5055108;28;20025;-80
2022/06/02 08:13:10;;;;;;;7.90;3.97;;;;;;;-144.94;50.53;76958.34;5039273;28;20036;-81
2022/06/02 08:15:44;;;;;;;5.22;2.72;;;;;;;-144.94;48.72;76946.00;5059008;28;20049;-81
2022/06/02 08:18:10;;;;;;;5.60;2.33;;;;;;;-144.94;48.85;76941.88;5058264;28;20037;-81
2022/06/02 08:20:53;;;;;;;6.30;3.07;;;;;;;-144.94;48.71;76896.59;5056064;28;20101;-81
2022/06/02 08:23:24;;;;;;;6.57;2.88;;;;;;;-144.94;48.65;76946.00;5055214;28;20079;-82
2022/06/02 08:26:07;;;;;;;7.80;3.00;;;;;;;-144.94;49.06;76894.53;5053646;28;20053;-81
2022/06/02 08:29:05;;;;;;;6.72;3.30;;;;;;;-144.94;47.97;76838.94;5054255;28;20036;-80
2022/06/02 08:32:22;;;;;;;7.40;2.83;;;;;;;-144.94;48.38;76913.06;5042722;28;20148;-79
2022/06/02 08:35:19;;;;;;;8.52;3.33;;;;;;;-144.94;49.22;76941.88;5020159;28;20077;-79
2022/06/02 08:37:53;;;;;;;6.53;3.38;;;;;;;-144.94;49.25;76900.69;5053911;28;20082;-79
2022/06/02 08:44:09;;;;;;;7.78;3.00;;;;;;;-144.94;49.28;76888.34;5054608;28;20036;-79
2022/06/02 08:46:53;;;;;;;7.97;3.38;;;;;;;-144.94;48.92;76880.13;5036378;28;20033;-78
2022/06/02 08:49:30;;;;;;;6.25;2.75;;;;;;;-144.94;49.55;76902.75;5035822;28;20375;-78
2022/06/02 08:52:07;;;;;;;7.18;3.38;;;;;;;-144.94;49.71;76950.13;5053566;28;20040;-79
2022/06/02 08:55:25;;;;;;;6.00;3.00;;;;;;;-144.94;49.65;76929.53;5057920;28;20029;-79
2022/06/02 08:58:09;;;;;;;7.05;3.40;;;;;;;-144.94;48.67;76931.59;5057346;28;20436;-79
2022/06/02 09:01:08;;;;;;;5.72;2.92;;;;;;;-144.94;48.38;76882.16;5058297;28;20067;-79
2022/06/02 09:04:01;;;;;;;7.68;3.35;;;;;;;-144.94;47.91;76859.53;5057212;28;20103;-78
2022/06/02 09:06:51;;;;;;;6.70;3.40;;;;;;;-144.94;47.27;76867.75;5057363;28;20060;-79
2022/06/02 09:09:46;;;;;;;7.60;3.03;;;;;;;-144.94;47.51;76869.81;5057940;28;20037;-81
2022/06/02 09:12:43;;;;;;;6.30;2.80;;;;;;;-144.94;46.46;76828.63;5058173;28;20025;-81
2022/06/02 09:15:34;;;;;;;6.05;2.92;;;;;;;-144.94;45.91;76793.63;5040060;28;20035;-82
2022/06/02 09:18:11;;;;;;;6.22;3.33;;;;;;;-144.94;45.70;76777.16;5058103;28;20044;-80
2022/06/02 09:20:52;;;;;;;5.32;3.08;;;;;;;-144.94;45.06;76777.16;5039398;28;20040;-79
2022/06/02 09:23:47;;;;;;;6.45;3.92;;;;;;;-144.94;45.34;76801.88;5057435;28;20059;-79
2022/06/02 09:26:28;;;;;;;5.80;3.20;;;;;;;-144.94;46.30;76777.16;5057612;28;20123;-81
2022/06/02 09:29:12;;;;;;;8.80;3.85;;;;;;;-144.94;45.33;76762.75;5039659;28;20032;-81
2022/06/02 09:32:00;;;;;;;6.70;2.92;;;;;;;-144.94;45.29;76764.81;5039732;28;20060;-81
2022/06/02 09:35:01;;;;;;;6.85;3.75;;;;;;;-144.94;45.19;76801.88;5039179;28;20041;-80
2022/06/02 09:37:47;;;;;;;6.28;2.92;;;;;;;-144.94;45.19;76793.63;5057563;28;20418;-81
2022/06/02 09:40:31;;;;;;;8.23;3.53;;;;;;;-144.94;45.10;76808.06;5056863;28;20069;-81
2022/06/02 09:43:20;;;;;;;6.30;3.17;;;;;;;-144.94;45.58;76836.88;5056852;28;20387;-81
2022/06/02 09:46:35;;;;;;;6.53;3.58;;;;;;;-144.94;45.73;76818.34;5057027;28;20033;-81
2022/06/02 09:49:22;;;;;;;11.57;4.30;;;;;;;-144.94;44.90;76803.94;5057431;28;20055;-82
2022/06/02 09:52:22;;;;;;;5.57;2.92;;;;;;;-144.94;44.93;76785.41;5057447;28;20044;-82
2022/06/02 09:55:06;;;;;;;6.68;3.22;;;;;;;-144.94;44.63;76806.00;5041130;28;20045;-81
2022/06/02 09:58:02;;;;;;;8.02;3.03;;;;;;;-144.94;43.92;76820.41;5040412;28;20041;-81
2022/06/02 10:00:39;;;;;;;5.97;2.78;;;;;;;-144.94;44.16;76838.94;5057726;28;20033;-80
2022/06/02 10:03:33;;;;;;;5.65;3.08;;;;;;;-144.94;44.90;76886.28;5058262;28;20029;-80
2022/06/02 10:06:14;;;;;;;6.22;3.35;;;;;;;-144.94;45.33;76906.88;5055820;28;20044;-80
2022/06/02 10:09:10;;;;;;;7.90;3.58;;;;;;;-144.94;44.58;76865.69;5056244;28;20029;-79
2022/06/02 10:15:07;;;;;;;6.20;3.13;;;;;;;-144.94;44.93;76884.22;5056332;28;20081;-81
2022/06/02 10:18:05;;;;;;;6.13;3.03;;;;;;;-144.94;45.19;76863.66;5056646;28;20033;-81
2022/06/02 10:21:08;;;;;;;5.40;2.92;;;;;;;-144.94;43.84;76857.47;5056272;28;20056;-79
2022/06/02 10:24:00;;;;;;;5.93;2.97;;;;;;;-144.94;44.55;76873.94;5056096;28;20140;-81
2022/06/02 10:26:53;;;;;;;5.22;2.80;;;;;;;-144.94;43.46;76849.22;5047953;28;20045;-80
2022/06/02 10:29:40;;;;;;;6.35;3.13;;;;;;;-144.94;44.44;76869.81;5056290;28;20074;-79
2022/06/02 10:32:22;;;;;;;8.80;4.30;;;;;;;-144.94;44.53;76855.41;5055855;28;20182;-79
2022/06/02 10:34:50;;;;;;;5.70;3.03;;;;;;;-144.94;44.74;76847.16;5038241;28;20128;-79
2022/06/02 10:37:34;;;;;;;5.45;2.42;;;;;;;-144.94;43.03;76841.00;5055498;28;20395;-79
2022/06/02 10:40:05;;;;;;;5.15;2.85;;;;;;;-144.94;43.41;76851.28;5055757;28;20586;-80
2022/06/02 10:42:49;;;;;;;4.50;2.47;;;;;;;-144.94;42.78;76810.13;5055337;28;20021;-79
2022/06/02 10:45:33;;;;;;;4.38;2.50;;;;;;;-144.94;43.45;76775.13;5055828;28;20031;-80
2022/06/02 10:48:26;;;;;;;6.13;3.05;;;;;;;-144.94;41.91;76733.94;5055714;28;20056;-80
2022/06/02 10:51:26;;;;;;;4.10;2.25;;;;;;;-144.94;41.10;76709.22;5055671;28;20033;-80
2022/06/02 10:54:35;;;;;;;6.30;2.17;;;;;;;-144.94;41.09;76694.81;5055558;28;20025;-79
2022/06/02 10:57:04;;;;;;;4.13;2.38;;;;;;;-144.94;40.28;76680.41;5055565;28;20487;-80
2022/06/02 10:59:41;;;;;;;5.90;2.25;;;;;;;-144.94;39.84;76637.16;5057013;28;20025;-80
2022/06/02 11:02:29;;;;;;;4.28;2.15;;;;;;;-144.94;39.96;76610.41;5057795;28;20059;-80
2022/06/02 11:05:09;;;;;;;4.30;2.10;;;;;;;-144.94;39.34;76612.47;5047270;28;20029;-80
2022/06/02 11:08:00;;;;;;;4.40;2.45;;;;;;;-144.94;39.64;76628.94;5041811;28;20436;-80
2022/06/02 11:10:46;;;;;;;4.20;2.30;;;;;;;-144.94;38.73;76550.69;5038932;28;20049;-80
2022/06/02 11:13:29;;;;;;;3.85;2.00;;;;;;;-144.94;38.14;76497.16;5063162;28;20029;-81
2022/06/02 11:16:29;;;;;;;4.10;2.03;;;;;;;-144.94;37.83;76476.59;5063263;28;20506;-80
2022/06/02 11:19:13;;;;;;;3.95;2.10;;;;;;;-144.94;38.13;76501.28;5061689;28;20490;-80
2022/06/02 11:22:18;;;;;;;3.75;2.03;;;;;;;-144.94;38.53;76577.47;5062065;28;20051;-80
2022/06/02 11:25:12;;;;;;;3.70;2.20;;;;;;;-144.94;38.68;76571.28;5061332;28;20072;-79
2022/06/02 11:28:15;;;;;;;4.05;2.30;;;;;;;-144.94;39.08;76526.00;5056786;28;20529;-79
2022/06/02 11:31:09;;;;;;;3.83;1.90;;;;;;;-144.94;38.74;76571.28;5056040;28;20118;-80
2022/06/02 11:33:43;;;;;;;5.75;2.65;;;;;;;-144.94;38.50;76579.53;5056059;28;20335;-80
2022/06/02 11:36:53;;;;;;;4.40;2.03;;;;;;;-144.94;38.61;76583.63;5055211;28;20368;-80
2022/06/02 11:39:33;;;;;;;3.78;2.17;;;;;;;-144.94;38.76;76579.53;5031371;28;20041;-81
2022/06/02 11:42:26;;;;;;;4.72;1.70;;;;;;;-144.94;38.59;76567.16;5054708;28;20463;-81
2022/06/02 11:45:32;;;;;;;3.47;1.80;;;;;;;-144.94;38.44;76563.06;5023615;28;20044;-80
2022/06/02 11:48:01;;;;;;;3.75;1.98;;;;;;;-144.94;38.12;76556.88;5036631;28;20028;-80
2022/06/02 11:51:13;;;;;;;3.70;1.90;;;;;;;-144.94;38.63;76526.00;5055312;28;20040;-81
2022/06/02 11:54:21;;;;;;;3.42;1.88;;;;;;;-144.94;37.50;76521.88;4993114;28;20043;-80
2022/06/02 11:57:16;;;;;;;4.70;2.08;;;;;;;-144.94;37.42;76515.69;5054571;28;20033;-80
2022/06/02 12:00:00;;;;;;;3.15;1.48;;;;;;;-144.94;37.73;76526.00;5025760;28;20041;-79
2022/06/02 12:02:52;;;;;;;3.65;1.63;;;;;;;-144.94;36.92;76474.53;5053464;28;20082;-78
2022/06/02 12:06:14;;;;;;;3.20;1.58;;;;;;;-144.94;37.36;76491.00;5005527;28;20040;-79
2022/06/02 12:08:59;;;;;;;3.22;1.60;;;;;;;-144.94;37.38;76542.47;4992255;28;20038;-79
2022/06/02 12:11:55;;;;;;;3.92;2.05;;;;;;;-144.94;37.55;76552.75;4991860;28;20610;-79
2022/06/02 12:14:39;;;;;;;3.67;1.70;;;;;;;-144.94;38.22;76550.69;5031495;28;20128;-80
2022/06/02 12:17:07;;;;;;;4.00;2.30;;;;;;;-144.94;37.88;76565.13;5053556;28;20032;-79
2022/06/02 12:20:10;;;;;;;3.92;1.85;;;;;;;-144.94;37.74;76583.63;5052966;28;20029;-79
2022/06/02 12:22:54;;;;;;;3.63;1.83;;;;;;;-144.94;36.79;76526.00;5052775;28;20082;-80
2022/06/02 12:26:10;;;;;;;3.58;1.40;;;;;;;-144.94;36.22;76447.75;5053316;28;20133;-80
2022/06/02 12:29:13;;;;;;;3.80;1.63;;;;;;;-144.94;34.81;76340.72;5005586;28;20079;-79
2022/06/02 12:31:54;;;;;;;3.30;1.60;;;;;;;-144.94;33.67;76184.25;5052705;28;20035;-79
2022/06/02 12:34:53;;;;;;;3.20;1.60;;;;;;;-144.94;33.46;76182.19;5053162;28;20111;-79
2022/06/02 12:37:46;;;;;;;3.35;1.60;;;;;;;-144.94;33.98;76287.19;5052634;28;20107;-78
2022/06/02 12:40:30;;;;;;;3.28;1.83;;;;;;;-144.94;32.56;76254.25;5052615;28;20041;-78
2022/06/02 12:43:20;;;;;;;2.55;1.30;;;;;;;-144.94;31.49;76136.91;5052474;28;20403;-78
2022/06/02 12:45:49;;;;;;;3.70;1.45;;;;;;;-144.94;31.56;76118.38;5052519;28;20039;-78
2022/06/02 12:48:41;;;;;;;3.10;1.27;;;;;;;-144.94;31.65;76093.69;5052334;28;20029;-79
2022/06/02 12:51:27;;;;;;;3.00;1.52;;;;;;;-144.94;31.70;76114.28;5007360;28;20044;-78
2022/06/02 12:54:08;;;;;;;3.25;1.70;;;;;;;-144.94;31.19;76095.75;5034723;28;20028;-78
2022/06/02 12:57:14;;;;;;;2.65;1.25;;;;;;;-144.94;31.44;76040.16;5052332;28;20426;-79
2022/06/02 12:59:48;;;;;;;3.17;1.70;;;;;;;-144.94;30.61;76048.41;5052200;28;20106;-78